sensor_id;sensor_type;location;lat;lon;timestamp;P1;durP1;ratioP1;P2;durP2;ratioP2
15120;SDS011;7661;48.904;9.414;2022-07-23T00:00:09;12.47;;;6.03;;
15120;SDS011;7661;48.904;9.414;2022-07-23T00:02:37;8.10;;;5.70;;
15120;SDS011;7661;48.904;9.414;2022-07-23T00:05:04;8.10;;;5.10;;
15120;SDS011;7661;48.904;9.414;2022-07-23T00:07:31;7.40;;;4.57;;
15120;SDS011;7661;48.904;9.414;2022-07-23T00:09:58;11.30;;;5.20;;
15120;SDS011;7661;48.904;9.414;2022-07-23T00:12:25;13.40;;;5.03;;
15120;SDS011;7661;48.904;9.414;2022-07-23T00:14:52;8.43;;;5.30;;
15120;SDS011;7661;48.904;9.414;2022-07-23T00:17:19;8.30;;;5.57;;
15120;SDS011;7661;48.904;9.414;2022-07-23T00:19:47;5.37;;;4.60;;
15120;SDS011;7661;48.904;9.414;2022-07-23T00:22:14;6.73;;;4.90;;
15120;SDS011;7661;48.904;9.414;2022-07-23T00:24:41;7.63;;;4.70;;
15120;SDS011;7661;48.904;9.414;2022-07-23T00:27:08;8.80;;;5.27;;
15120;SDS011;7661;48.904;9.414;2022-07-23T00:29:35;9.13;;;4.90;;
15120;SDS011;7661;48.904;9.414;2022-07-23T00:32:02;5.90;;;4.40;;
15120;SDS011;7661;48.904;9.414;2022-07-23T00:34:29;7.33;;;5.07;;
15120;SDS011;7661;48.904;9.414;2022-07-23T00:36:58;8.40;;;5.27;;
15120;SDS011;7661;48.904;9.414;2022-07-23T00:39:25;6.87;;;4.93;;
15120;SDS011;7661;48.904;9.414;2022-07-23T00:41:52;7.47;;;4.50;;
15120;SDS011;7661;48.904;9.414;2022-07-23T00:44:19;8.37;;;5.80;;
15120;SDS011;7661;48.904;9.414;2022-07-23T00:46:48;6.73;;;4.63;;
15120;SDS011;7661;48.904;9.414;2022-07-23T00:49:18;12.30;;;4.50;;
15120;SDS011;7661;48.904;9.414;2022-07-23T00:51:46;6.50;;;4.33;;
15120;SDS011;7661;48.904;9.414;2022-07-23T00:54:15;13.50;;;5.00;;
15120;SDS011;7661;48.904;9.414;2022-07-23T00:56:43;6.33;;;4.77;;
15120;SDS011;7661;48.904;9.414;2022-07-23T00:59:10;6.70;;;4.43;;
15120;SDS011;7661;48.904;9.414;2022-07-23T01:01:37;8.13;;;4.47;;
15120;SDS011;7661;48.904;9.414;2022-07-23T01:04:05;9.73;;;4.07;;
15120;SDS011;7661;48.904;9.414;2022-07-23T01:06:33;9.07;;;4.40;;
15120;SDS011;7661;48.904;9.414;2022-07-23T01:09:02;10.10;;;4.97;;
15120;SDS011;7661;48.904;9.414;2022-07-23T01:11:31;6.30;;;3.80;;
15120;SDS011;7661;48.904;9.414;2022-07-23T01:13:58;6.83;;;4.40;;
15120;SDS011;7661;48.904;9.414;2022-07-23T01:16:25;5.37;;;3.90;;
15120;SDS011;7661;48.904;9.414;2022-07-23T01:18:52;6.57;;;3.90;;
15120;SDS011;7661;48.904;9.414;2022-07-23T01:21:19;7.10;;;4.60;;
15120;SDS011;7661;48.904;9.414;2022-07-23T01:23:48;7.53;;;4.27;;
15120;SDS011;7661;48.904;9.414;2022-07-23T01:26:15;17.50;;;4.50;;
15120;SDS011;7661;48.904;9.414;2022-07-23T01:28:42;7.17;;;4.53;;
15120;SDS011;7661;48.904;9.414;2022-07-23T01:31:09;7.93;;;3.93;;
15120;SDS011;7661;48.904;9.414;2022-07-23T01:33:36;7.30;;;4.07;;
15120;SDS011;7661;48.904;9.414;2022-07-23T01:36:03;6.03;;;4.10;;
15120;SDS011;7661;48.904;9.414;2022-07-23T01:38:31;7.07;;;4.30;;
15120;SDS011;7661;48.904;9.414;2022-07-23T01:40:59;7.30;;;4.47;;
15120;SDS011;7661;48.904;9.414;2022-07-23T01:43:26;5.77;;;4.70;;
15120;SDS011;7661;48.904;9.414;2022-07-23T01:45:52;6.20;;;3.70;;
15120;SDS011;7661;48.904;9.414;2022-07-23T01:48:22;8.07;;;3.70;;
15120;SDS011;7661;48.904;9.414;2022-07-23T01:51:13;7.13;;;3.70;;
15120;SDS011;7661;48.904;9.414;2022-07-23T01:53:46;6.60;;;4.00;;
15120;SDS011;7661;48.904;9.414;2022-07-23T01:56:14;6.83;;;4.47;;
15120;SDS011;7661;48.904;9.414;2022-07-23T01:58:41;5.37;;;3.93;;
15120;SDS011;7661;48.904;9.414;2022-07-23T02:01:08;6.90;;;3.50;;
15120;SDS011;7661;48.904;9.414;2022-07-23T02:03:35;7.23;;;3.97;;
15120;SDS011;7661;48.904;9.414;2022-07-23T02:06:02;6.00;;;4.37;;
15120;SDS011;7661;48.904;9.414;2022-07-23T02:08:29;6.10;;;4.20;;
15120;SDS011;7661;48.904;9.414;2022-07-23T02:10:56;8.83;;;4.00;;
15120;SDS011;7661;48.904;9.414;2022-07-23T02:13:24;9.37;;;4.40;;
15120;SDS011;7661;48.904;9.414;2022-07-23T02:15:51;6.10;;;3.60;;
15120;SDS011;7661;48.904;9.414;2022-07-23T02:18:18;6.73;;;3.90;;
15120;SDS011;7661;48.904;9.414;2022-07-23T02:20:45;5.57;;;3.87;;
15120;SDS011;7661;48.904;9.414;2022-07-23T02:23:12;5.80;;;4.07;;
15120;SDS011;7661;48.904;9.414;2022-07-23T02:25:38;6.53;;;4.10;;
15120;SDS011;7661;48.904;9.414;2022-07-23T02:28:05;8.50;;;4.50;;
15120;SDS011;7661;48.904;9.414;2022-07-23T02:30:34;5.97;;;4.00;;
15120;SDS011;7661;48.904;9.414;2022-07-23T02:33:01;5.60;;;4.23;;
15120;SDS011;7661;48.904;9.414;2022-07-23T02:35:28;5.50;;;3.70;;
15120;SDS011;7661;48.904;9.414;2022-07-23T02:37:54;9.13;;;3.93;;
15120;SDS011;7661;48.904;9.414;2022-07-23T02:40:21;6.30;;;4.00;;
15120;SDS011;7661;48.904;9.414;2022-07-23T02:42:48;5.40;;;3.80;;
15120;SDS011;7661;48.904;9.414;2022-07-23T02:45:15;6.43;;;3.90;;
15120;SDS011;7661;48.904;9.414;2022-07-23T02:47:43;6.77;;;4.27;;
15120;SDS011;7661;48.904;9.414;2022-07-23T02:50:10;6.60;;;3.80;;
15120;SDS011;7661;48.904;9.414;2022-07-23T02:52:37;6.80;;;4.20;;
15120;SDS011;7661;48.904;9.414;2022-07-23T02:55:04;6.40;;;4.10;;
15120;SDS011;7661;48.904;9.414;2022-07-23T02:57:32;5.80;;;4.20;;
15120;SDS011;7661;48.904;9.414;2022-07-23T02:59:59;6.13;;;4.30;;
15120;SDS011;7661;48.904;9.414;2022-07-23T03:02:26;9.80;;;6.23;;
15120;SDS011;7661;48.904;9.414;2022-07-23T03:04:54;7.87;;;5.37;;
15120;SDS011;7661;48.904;9.414;2022-07-23T03:07:21;8.20;;;4.30;;
15120;SDS011;7661;48.904;9.414;2022-07-23T03:09:48;6.70;;;4.23;;
15120;SDS011;7661;48.904;9.414;2022-07-23T03:12:14;7.40;;;4.30;;
15120;SDS011;7661;48.904;9.414;2022-07-23T03:14:41;11.63;;;4.70;;
15120;SDS011;7661;48.904;9.414;2022-07-23T03:17:08;5.10;;;4.10;;
15120;SDS011;7661;48.904;9.414;2022-07-23T03:19:35;7.70;;;4.20;;
15120;SDS011;7661;48.904;9.414;2022-07-23T03:22:05;8.40;;;4.30;;
15120;SDS011;7661;48.904;9.414;2022-07-23T03:24:32;7.60;;;4.53;;
15120;SDS011;7661;48.904;9.414;2022-07-23T03:27:16;7.40;;;4.93;;
15120;SDS011;7661;48.904;9.414;2022-07-23T03:29:43;8.43;;;5.03;;
15120;SDS011;7661;48.904;9.414;2022-07-23T03:32:10;6.27;;;4.37;;
15120;SDS011;7661;48.904;9.414;2022-07-23T03:34:36;8.97;;;4.60;;
15120;SDS011;7661;48.904;9.414;2022-07-23T03:37:06;6.83;;;4.30;;
15120;SDS011;7661;48.904;9.414;2022-07-23T03:39:33;5.93;;;4.53;;
15120;SDS011;7661;48.904;9.414;2022-07-23T03:41:59;8.10;;;5.10;;
15120;SDS011;7661;48.904;9.414;2022-07-23T03:44:26;7.77;;;4.47;;
15120;SDS011;7661;48.904;9.414;2022-07-23T03:46:53;7.50;;;4.70;;
15120;SDS011;7661;48.904;9.414;2022-07-23T03:49:20;7.37;;;4.37;;
15120;SDS011;7661;48.904;9.414;2022-07-23T03:51:47;6.53;;;4.67;;
15120;SDS011;7661;48.904;9.414;2022-07-23T03:54:15;8.80;;;5.33;;
15120;SDS011;7661;48.904;9.414;2022-07-23T03:56:42;6.33;;;4.57;;
15120;SDS011;7661;48.904;9.414;2022-07-23T03:59:09;7.37;;;5.00;;
15120;SDS011;7661;48.904;9.414;2022-07-23T04:01:36;7.03;;;4.50;;
15120;SDS011;7661;48.904;9.414;2022-07-23T04:04:03;9.40;;;4.53;;
15120;SDS011;7661;48.904;9.414;2022-07-23T04:06:30;8.43;;;5.17;;
15120;SDS011;7661;48.904;9.414;2022-07-23T04:08:57;6.53;;;4.73;;
15120;SDS011;7661;48.904;9.414;2022-07-23T04:11:26;6.47;;;4.73;;
15120;SDS011;7661;48.904;9.414;2022-07-23T04:13:53;10.57;;;4.67;;
15120;SDS011;7661;48.904;9.414;2022-07-23T04:16:19;6.50;;;4.27;;
15120;SDS011;7661;48.904;9.414;2022-07-23T04:18:46;7.20;;;5.30;;
15120;SDS011;7661;48.904;9.414;2022-07-23T04:21:13;8.00;;;5.00;;
15120;SDS011;7661;48.904;9.414;2022-07-23T04:23:40;9.97;;;5.07;;
15120;SDS011;7661;48.904;9.414;2022-07-23T04:26:07;7.73;;;5.47;;
15120;SDS011;7661;48.904;9.414;2022-07-23T04:28:35;8.77;;;4.90;;
15120;SDS011;7661;48.904;9.414;2022-07-23T04:31:02;8.20;;;5.07;;
15120;SDS011;7661;48.904;9.414;2022-07-23T04:33:29;12.77;;;5.50;;
15120;SDS011;7661;48.904;9.414;2022-07-23T04:35:56;6.00;;;4.90;;
15120;SDS011;7661;48.904;9.414;2022-07-23T04:38:23;10.13;;;5.30;;
15120;SDS011;7661;48.904;9.414;2022-07-23T04:40:50;10.60;;;5.50;;
15120;SDS011;7661;48.904;9.414;2022-07-23T04:43:17;7.83;;;5.47;;
15120;SDS011;7661;48.904;9.414;2022-07-23T04:45:46;7.77;;;5.43;;
15120;SDS011;7661;48.904;9.414;2022-07-23T04:48:12;8.20;;;5.07;;
15120;SDS011;7661;48.904;9.414;2022-07-23T04:50:39;10.33;;;5.10;;
15120;SDS011;7661;48.904;9.414;2022-07-23T04:53:07;8.03;;;5.43;;
15120;SDS011;7661;48.904;9.414;2022-07-23T04:55:34;9.53;;;5.40;;
15120;SDS011;7661;48.904;9.414;2022-07-23T04:58:01;6.70;;;5.00;;
15120;SDS011;7661;48.904;9.414;2022-07-23T05:00:28;7.97;;;4.90;;
15120;SDS011;7661;48.904;9.414;2022-07-23T05:02:56;9.00;;;5.30;;
15120;SDS011;7661;48.904;9.414;2022-07-23T05:05:23;6.00;;;4.50;;
15120;SDS011;7661;48.904;9.414;2022-07-23T05:07:50;8.83;;;5.43;;
15120;SDS011;7661;48.904;9.414;2022-07-23T05:10:17;10.13;;;5.60;;
15120;SDS011;7661;48.904;9.414;2022-07-23T05:12:44;8.33;;;5.23;;
15120;SDS011;7661;48.904;9.414;2022-07-23T05:15:10;7.70;;;5.33;;
15120;SDS011;7661;48.904;9.414;2022-07-23T05:17:37;10.47;;;5.90;;
15120;SDS011;7661;48.904;9.414;2022-07-23T05:20:06;8.10;;;5.17;;
15120;SDS011;7661;48.904;9.414;2022-07-23T05:22:33;8.40;;;5.50;;
15120;SDS011;7661;48.904;9.414;2022-07-23T05:25:00;8.40;;;5.07;;
15120;SDS011;7661;48.904;9.414;2022-07-23T05:27:27;8.73;;;5.93;;
15120;SDS011;7661;48.904;9.414;2022-07-23T05:29:54;8.40;;;5.40;;
15120;SDS011;7661;48.904;9.414;2022-07-23T05:32:21;6.93;;;5.03;;
15120;SDS011;7661;48.904;9.414;2022-07-23T05:34:48;6.13;;;4.60;;
15120;SDS011;7661;48.904;9.414;2022-07-23T05:37:16;7.63;;;5.47;;
15120;SDS011;7661;48.904;9.414;2022-07-23T05:39:43;9.40;;;4.73;;
15120;SDS011;7661;48.904;9.414;2022-07-23T05:42:10;7.63;;;5.30;;
15120;SDS011;7661;48.904;9.414;2022-07-23T05:44:37;10.37;;;5.73;;
15120;SDS011;7661;48.904;9.414;2022-07-23T05:47:04;7.27;;;4.63;;
15120;SDS011;7661;48.904;9.414;2022-07-23T05:49:31;12.93;;;11.10;;
15120;SDS011;7661;48.904;9.414;2022-07-23T05:51:57;9.40;;;8.30;;
15120;SDS011;7661;48.904;9.414;2022-07-23T05:54:26;10.30;;;6.43;;
15120;SDS011;7661;48.904;9.414;2022-07-23T05:56:53;8.17;;;4.93;;
15120;SDS011;7661;48.904;9.414;2022-07-23T05:59:19;8.03;;;5.60;;
15120;SDS011;7661;48.904;9.414;2022-07-23T06:01:46;12.63;;;4.67;;
15120;SDS011;7661;48.904;9.414;2022-07-23T06:04:13;6.97;;;4.77;;
15120;SDS011;7661;48.904;9.414;2022-07-23T06:06:40;10.97;;;4.63;;
15120;SDS011;7661;48.904;9.414;2022-07-23T06:09:07;7.50;;;4.83;;
15120;SDS011;7661;48.904;9.414;2022-07-23T06:11:37;9.37;;;5.57;;
15120;SDS011;7661;48.904;9.414;2022-07-23T06:14:04;7.27;;;5.50;;
15120;SDS011;7661;48.904;9.414;2022-07-23T06:16:31;11.57;;;5.27;;
15120;SDS011;7661;48.904;9.414;2022-07-23T06:18:58;10.27;;;5.13;;
15120;SDS011;7661;48.904;9.414;2022-07-23T06:21:25;9.77;;;5.70;;
15120;SDS011;7661;48.904;9.414;2022-07-23T06:23:51;11.63;;;5.27;;
15120;SDS011;7661;48.904;9.414;2022-07-23T06:26:18;7.40;;;5.77;;
15120;SDS011;7661;48.904;9.414;2022-07-23T06:28:46;8.27;;;5.80;;
15120;SDS011;7661;48.904;9.414;2022-07-23T06:31:13;9.07;;;5.10;;
15120;SDS011;7661;48.904;9.414;2022-07-23T06:33:40;9.13;;;5.47;;
15120;SDS011;7661;48.904;9.414;2022-07-23T06:36:07;6.80;;;4.90;;
15120;SDS011;7661;48.904;9.414;2022-07-23T06:38:34;8.50;;;5.13;;
15120;SDS011;7661;48.904;9.414;2022-07-23T06:41:01;8.80;;;5.50;;
15120;SDS011;7661;48.904;9.414;2022-07-23T06:43:29;13.60;;;5.37;;
15120;SDS011;7661;48.904;9.414;2022-07-23T06:45:58;8.50;;;5.07;;
15120;SDS011;7661;48.904;9.414;2022-07-23T06:48:24;9.13;;;5.93;;
15120;SDS011;7661;48.904;9.414;2022-07-23T06:50:51;7.90;;;6.17;;
15120;SDS011;7661;48.904;9.414;2022-07-23T06:53:18;11.40;;;5.70;;
15120;SDS011;7661;48.904;9.414;2022-07-23T06:55:45;8.10;;;5.70;;
15120;SDS011;7661;48.904;9.414;2022-07-23T06:58:12;9.63;;;6.17;;
15120;SDS011;7661;48.904;9.414;2022-07-23T07:00:39;9.60;;;6.57;;
15120;SDS011;7661;48.904;9.414;2022-07-23T07:03:07;12.17;;;5.77;;
15120;SDS011;7661;48.904;9.414;2022-07-23T07:05:34;12.00;;;6.80;;
15120;SDS011;7661;48.904;9.414;2022-07-23T07:08:01;9.70;;;6.83;;
15120;SDS011;7661;48.904;9.414;2022-07-23T07:10:28;10.20;;;7.10;;
15120;SDS011;7661;48.904;9.414;2022-07-23T07:12:55;8.77;;;6.40;;
15120;SDS011;7661;48.904;9.414;2022-07-23T07:15:22;9.37;;;6.80;;
15120;SDS011;7661;48.904;9.414;2022-07-23T07:17:48;9.50;;;7.47;;
15120;SDS011;7661;48.904;9.414;2022-07-23T07:20:17;10.33;;;7.83;;
15120;SDS011;7661;48.904;9.414;2022-07-23T07:22:44;16.97;;;8.57;;
15120;SDS011;7661;48.904;9.414;2022-07-23T07:25:11;11.57;;;8.17;;
15120;SDS011;7661;48.904;9.414;2022-07-23T07:27:37;11.13;;;7.33;;
15120;SDS011;7661;48.904;9.414;2022-07-23T07:30:05;13.67;;;8.17;;
15120;SDS011;7661;48.904;9.414;2022-07-23T07:32:32;13.63;;;8.00;;
15120;SDS011;7661;48.904;9.414;2022-07-23T07:35:01;17.57;;;8.03;;
15120;SDS011;7661;48.904;9.414;2022-07-23T07:37:30;13.03;;;8.30;;
15120;SDS011;7661;48.904;9.414;2022-07-23T07:39:56;14.33;;;7.40;;
15120;SDS011;7661;48.904;9.414;2022-07-23T07:42:23;11.33;;;7.60;;
15120;SDS011;7661;48.904;9.414;2022-07-23T07:44:50;11.97;;;7.60;;
15120;SDS011;7661;48.904;9.414;2022-07-23T07:47:17;11.97;;;7.47;;
15120;SDS011;7661;48.904;9.414;2022-07-23T07:49:44;12.10;;;7.73;;
15120;SDS011;7661;48.904;9.414;2022-07-23T07:52:11;11.87;;;7.93;;
15120;SDS011;7661;48.904;9.414;2022-07-23T07:54:39;11.30;;;8.43;;
15120;SDS011;7661;48.904;9.414;2022-07-23T07:57:06;19.70;;;7.37;;
15120;SDS011;7661;48.904;9.414;2022-07-23T07:59:33;12.83;;;7.30;;
15120;SDS011;7661;48.904;9.414;2022-07-23T08:01:59;9.20;;;7.30;;
15120;SDS011;7661;48.904;9.414;2022-07-23T08:04:26;11.90;;;8.03;;
15120;SDS011;7661;48.904;9.414;2022-07-23T08:06:53;14.37;;;8.37;;
15120;SDS011;7661;48.904;9.414;2022-07-23T08:09:20;14.53;;;7.17;;
15120;SDS011;7661;48.904;9.414;2022-07-23T08:11:48;14.50;;;8.20;;
15120;SDS011;7661;48.904;9.414;2022-07-23T08:14:16;14.20;;;6.93;;
15120;SDS011;7661;48.904;9.414;2022-07-23T08:16:43;10.93;;;7.20;;
15120;SDS011;7661;48.904;9.414;2022-07-23T08:19:10;10.10;;;6.93;;
15120;SDS011;7661;48.904;9.414;2022-07-23T08:21:37;16.77;;;7.70;;
15120;SDS011;7661;48.904;9.414;2022-07-23T08:24:04;14.03;;;7.33;;
15120;SDS011;7661;48.904;9.414;2022-07-23T08:26:31;8.23;;;6.77;;
15120;SDS011;7661;48.904;9.414;2022-07-23T08:28:59;14.33;;;7.43;;
15120;SDS011;7661;48.904;9.414;2022-07-23T08:31:26;10.20;;;7.00;;
15120;SDS011;7661;48.904;9.414;2022-07-23T08:33:53;9.00;;;7.43;;
15120;SDS011;7661;48.904;9.414;2022-07-23T08:36:21;9.40;;;7.57;;
15120;SDS011;7661;48.904;9.414;2022-07-23T08:38:48;11.53;;;6.67;;
15120;SDS011;7661;48.904;9.414;2022-07-23T08:41:15;10.57;;;7.40;;
15120;SDS011;7661;48.904;9.414;2022-07-23T08:43:42;14.03;;;7.23;;
15120;SDS011;7661;48.904;9.414;2022-07-23T08:46:12;13.50;;;7.73;;
15120;SDS011;7661;48.904;9.414;2022-07-23T08:48:40;11.47;;;6.90;;
15120;SDS011;7661;48.904;9.414;2022-07-23T08:51:06;11.90;;;6.40;;
15120;SDS011;7661;48.904;9.414;2022-07-23T08:53:35;8.57;;;6.37;;
15120;SDS011;7661;48.904;9.414;2022-07-23T08:56:04;10.23;;;6.30;;
15120;SDS011;7661;48.904;9.414;2022-07-23T08:58:31;9.67;;;7.10;;
15120;SDS011;7661;48.904;9.414;2022-07-23T09:00:58;12.73;;;7.33;;
15120;SDS011;7661;48.904;9.414;2022-07-23T09:03:28;11.90;;;7.60;;
15120;SDS011;7661;48.904;9.414;2022-07-23T09:05:56;10.80;;;6.67;;
15120;SDS011;7661;48.904;9.414;2022-07-23T09:08:27;8.97;;;6.60;;
15120;SDS011;7661;48.904;9.414;2022-07-23T09:11:02;9.80;;;5.40;;
15120;SDS011;7661;48.904;9.414;2022-07-23T09:13:31;9.90;;;5.50;;
15120;SDS011;7661;48.904;9.414;2022-07-23T09:16:00;11.40;;;5.43;;
15120;SDS011;7661;48.904;9.414;2022-07-23T09:18:32;9.83;;;5.60;;
15120;SDS011;7661;48.904;9.414;2022-07-23T09:23:56;8.60;;;5.60;;
15120;SDS011;7661;48.904;9.414;2022-07-23T09:26:27;8.00;;;5.60;;
15120;SDS011;7661;48.904;9.414;2022-07-23T09:28:59;9.97;;;6.10;;
15120;SDS011;7661;48.904;9.414;2022-07-23T09:31:34;7.03;;;5.27;;
15120;SDS011;7661;48.904;9.414;2022-07-23T09:34:10;9.40;;;5.80;;
15120;SDS011;7661;48.904;9.414;2022-07-23T09:36:39;7.93;;;5.17;;
15120;SDS011;7661;48.904;9.414;2022-07-23T09:39:07;6.13;;;5.03;;
15120;SDS011;7661;48.904;9.414;2022-07-23T09:41:38;7.77;;;5.00;;
15120;SDS011;7661;48.904;9.414;2022-07-23T09:44:11;6.73;;;4.90;;
15120;SDS011;7661;48.904;9.414;2022-07-23T09:46:41;7.80;;;5.07;;
15120;SDS011;7661;48.904;9.414;2022-07-23T09:49:20;6.60;;;4.93;;
15120;SDS011;7661;48.904;9.414;2022-07-23T09:51:49;8.10;;;4.90;;
15120;SDS011;7661;48.904;9.414;2022-07-23T09:54:25;8.20;;;5.07;;
15120;SDS011;7661;48.904;9.414;2022-07-23T09:56:55;6.23;;;4.80;;
15120;SDS011;7661;48.904;9.414;2022-07-23T09:59:25;7.57;;;5.20;;
15120;SDS011;7661;48.904;9.414;2022-07-23T10:01:54;5.60;;;4.17;;
15120;SDS011;7661;48.904;9.414;2022-07-23T10:04:25;6.63;;;4.87;;
15120;SDS011;7661;48.904;9.414;2022-07-23T10:06:53;8.13;;;4.70;;
15120;SDS011;7661;48.904;9.414;2022-07-23T10:09:22;5.47;;;4.83;;
15120;SDS011;7661;48.904;9.414;2022-07-23T10:11:52;7.70;;;5.33;;
15120;SDS011;7661;48.904;9.414;2022-07-23T10:14:27;7.77;;;5.60;;
15120;SDS011;7661;48.904;9.414;2022-07-23T10:16:56;6.83;;;4.80;;
15120;SDS011;7661;48.904;9.414;2022-07-23T10:19:25;5.17;;;4.40;;
15120;SDS011;7661;48.904;9.414;2022-07-23T10:21:54;7.00;;;5.37;;
15120;SDS011;7661;48.904;9.414;2022-07-23T10:24:28;7.10;;;5.00;;
15120;SDS011;7661;48.904;9.414;2022-07-23T10:27:12;9.60;;;5.50;;
15120;SDS011;7661;48.904;9.414;2022-07-23T10:30:07;6.50;;;4.37;;
15120;SDS011;7661;48.904;9.414;2022-07-23T10:32:40;13.47;;;5.73;;
15120;SDS011;7661;48.904;9.414;2022-07-23T10:35:19;8.03;;;5.07;;
15120;SDS011;7661;48.904;9.414;2022-07-23T10:37:54;5.53;;;4.27;;
15120;SDS011;7661;48.904;9.414;2022-07-23T10:40:27;5.50;;;4.47;;
15120;SDS011;7661;48.904;9.414;2022-07-23T10:42:58;6.60;;;5.10;;
15120;SDS011;7661;48.904;9.414;2022-07-23T10:45:30;4.90;;;3.90;;
15120;SDS011;7661;48.904;9.414;2022-07-23T10:48:14;7.30;;;4.50;;
15120;SDS011;7661;48.904;9.414;2022-07-23T10:50:44;9.70;;;5.37;;
15120;SDS011;7661;48.904;9.414;2022-07-23T10:53:44;7.63;;;4.70;;
15120;SDS011;7661;48.904;9.414;2022-07-23T10:59:30;5.80;;;4.57;;
15120;SDS011;7661;48.904;9.414;2022-07-23T11:02:11;6.50;;;5.20;;
15120;SDS011;7661;48.904;9.414;2022-07-23T11:04:51;7.00;;;5.13;;
15120;SDS011;7661;48.904;9.414;2022-07-23T11:07:20;6.07;;;4.70;;
15120;SDS011;7661;48.904;9.414;2022-07-23T11:09:47;7.90;;;4.80;;
15120;SDS011;7661;48.904;9.414;2022-07-23T11:15:08;8.47;;;4.73;;
15120;SDS011;7661;48.904;9.414;2022-07-23T11:17:36;7.23;;;5.17;;
15120;SDS011;7661;48.904;9.414;2022-07-23T11:20:18;7.80;;;4.70;;
15120;SDS011;7661;48.904;9.414;2022-07-23T11:22:50;6.77;;;4.70;;
15120;SDS011;7661;48.904;9.414;2022-07-23T11:25:31;5.37;;;4.33;;
15120;SDS011;7661;48.904;9.414;2022-07-23T11:28:12;8.03;;;4.70;;
15120;SDS011;7661;48.904;9.414;2022-07-23T11:30:42;6.20;;;4.73;;
15120;SDS011;7661;48.904;9.414;2022-07-23T11:33:16;5.70;;;4.43;;
15120;SDS011;7661;48.904;9.414;2022-07-23T11:35:46;5.50;;;4.67;;
15120;SDS011;7661;48.904;9.414;2022-07-23T11:38:16;5.27;;;4.10;;
15120;SDS011;7661;48.904;9.414;2022-07-23T11:40:45;5.27;;;3.80;;
15120;SDS011;7661;48.904;9.414;2022-07-23T11:43:13;6.60;;;4.40;;
15120;SDS011;7661;48.904;9.414;2022-07-23T11:45:41;6.13;;;4.90;;
15120;SDS011;7661;48.904;9.414;2022-07-23T11:48:14;10.70;;;5.30;;
15120;SDS011;7661;48.904;9.414;2022-07-23T11:50:43;7.63;;;5.00;;
15120;SDS011;7661;48.904;9.414;2022-07-23T11:53:09;9.30;;;4.50;;
15120;SDS011;7661;48.904;9.414;2022-07-23T11:55:38;7.50;;;4.43;;
15120;SDS011;7661;48.904;9.414;2022-07-23T11:58:05;10.37;;;4.60;;
15120;SDS011;7661;48.904;9.414;2022-07-23T12:00:32;7.37;;;4.77;;
15120;SDS011;7661;48.904;9.414;2022-07-23T12:03:00;6.10;;;4.53;;
15120;SDS011;7661;48.904;9.414;2022-07-23T12:05:29;6.80;;;4.57;;
15120;SDS011;7661;48.904;9.414;2022-07-23T12:07:57;8.00;;;4.67;;
15120;SDS011;7661;48.904;9.414;2022-07-23T12:10:26;6.20;;;4.37;;
15120;SDS011;7661;48.904;9.414;2022-07-23T12:12:55;6.43;;;4.80;;
15120;SDS011;7661;48.904;9.414;2022-07-23T12:15:24;7.17;;;5.20;;
15120;SDS011;7661;48.904;9.414;2022-07-23T12:17:54;7.33;;;4.73;;
15120;SDS011;7661;48.904;9.414;2022-07-23T12:20:21;5.77;;;4.83;;
15120;SDS011;7661;48.904;9.414;2022-07-23T12:22:51;6.33;;;4.47;;
15120;SDS011;7661;48.904;9.414;2022-07-23T12:25:19;6.30;;;4.77;;
15120;SDS011;7661;48.904;9.414;2022-07-23T12:27:58;6.43;;;4.57;;
15120;SDS011;7661;48.904;9.414;2022-07-23T12:30:28;8.67;;;5.00;;
15120;SDS011;7661;48.904;9.414;2022-07-23T12:32:57;7.00;;;5.00;;
15120;SDS011;7661;48.904;9.414;2022-07-23T12:35:30;6.20;;;5.03;;
15120;SDS011;7661;48.904;9.414;2022-07-23T12:37:59;6.00;;;4.80;;
15120;SDS011;7661;48.904;9.414;2022-07-23T12:40:28;6.40;;;4.70;;
15120;SDS011;7661;48.904;9.414;2022-07-23T12:42:57;6.80;;;5.00;;
15120;SDS011;7661;48.904;9.414;2022-07-23T12:45:27;24.67;;;8.13;;
15120;SDS011;7661;48.904;9.414;2022-07-23T12:48:07;16.13;;;5.33;;
15120;SDS011;7661;48.904;9.414;2022-07-23T12:50:36;6.90;;;5.37;;
15120;SDS011;7661;48.904;9.414;2022-07-23T12:53:06;8.53;;;5.40;;
15120;SDS011;7661;48.904;9.414;2022-07-23T12:55:35;6.20;;;5.07;;
15120;SDS011;7661;48.904;9.414;2022-07-23T12:58:05;13.60;;;4.77;;
15120;SDS011;7661;48.904;9.414;2022-07-23T13:00:48;7.03;;;4.40;;
15120;SDS011;7661;48.904;9.414;2022-07-23T13:03:25;7.57;;;5.10;;
15120;SDS011;7661;48.904;9.414;2022-07-23T13:05:55;6.20;;;4.47;;
15120;SDS011;7661;48.904;9.414;2022-07-23T13:08:22;6.43;;;4.57;;
15120;SDS011;7661;48.904;9.414;2022-07-23T13:10:50;5.73;;;4.53;;
15120;SDS011;7661;48.904;9.414;2022-07-23T13:13:21;7.83;;;5.13;;
15120;SDS011;7661;48.904;9.414;2022-07-23T13:15:49;8.53;;;4.73;;
15120;SDS011;7661;48.904;9.414;2022-07-23T13:18:16;5.77;;;4.80;;
15120;SDS011;7661;48.904;9.414;2022-07-23T13:20:44;6.40;;;5.03;;
15120;SDS011;7661;48.904;9.414;2022-07-23T13:23:11;5.53;;;4.87;;
15120;SDS011;7661;48.904;9.414;2022-07-23T13:25:38;6.00;;;5.10;;
15120;SDS011;7661;48.904;9.414;2022-07-23T13:28:05;6.13;;;4.90;;
15120;SDS011;7661;48.904;9.414;2022-07-23T13:30:33;5.70;;;4.77;;
15120;SDS011;7661;48.904;9.414;2022-07-23T13:33:01;8.30;;;5.43;;
15120;SDS011;7661;48.904;9.414;2022-07-23T13:35:29;10.17;;;5.20;;
15120;SDS011;7661;48.904;9.414;2022-07-23T13:37:55;7.50;;;4.80;;
15120;SDS011;7661;48.904;9.414;2022-07-23T13:40:22;8.70;;;5.13;;
15120;SDS011;7661;48.904;9.414;2022-07-23T13:42:49;7.17;;;5.30;;
15120;SDS011;7661;48.904;9.414;2022-07-23T13:45:16;7.77;;;5.40;;
15120;SDS011;7661;48.904;9.414;2022-07-23T13:47:44;7.10;;;5.20;;
15120;SDS011;7661;48.904;9.414;2022-07-23T13:50:11;6.80;;;5.20;;
15120;SDS011;7661;48.904;9.414;2022-07-23T13:52:41;9.50;;;5.50;;
15120;SDS011;7661;48.904;9.414;2022-07-23T13:55:08;6.43;;;5.70;;
15120;SDS011;7661;48.904;9.414;2022-07-23T13:57:36;7.00;;;5.60;;
15120;SDS011;7661;48.904;9.414;2022-07-23T14:00:04;7.07;;;5.70;;
15120;SDS011;7661;48.904;9.414;2022-07-23T14:02:33;9.10;;;5.90;;
15120;SDS011;7661;48.904;9.414;2022-07-23T14:05:03;8.73;;;5.97;;
15120;SDS011;7661;48.904;9.414;2022-07-23T14:07:31;6.80;;;5.20;;
15120;SDS011;7661;48.904;9.414;2022-07-23T14:09:57;11.07;;;5.87;;
15120;SDS011;7661;48.904;9.414;2022-07-23T14:12:25;7.03;;;5.00;;
15120;SDS011;7661;48.904;9.414;2022-07-23T14:14:52;6.60;;;5.80;;
15120;SDS011;7661;48.904;9.414;2022-07-23T14:17:19;7.90;;;5.70;;
15120;SDS011;7661;48.904;9.414;2022-07-23T14:19:46;5.97;;;5.37;;
15120;SDS011;7661;48.904;9.414;2022-07-23T14:22:14;8.50;;;5.90;;
15120;SDS011;7661;48.904;9.414;2022-07-23T14:24:41;7.80;;;5.60;;
15120;SDS011;7661;48.904;9.414;2022-07-23T14:27:08;7.20;;;5.80;;
15120;SDS011;7661;48.904;9.414;2022-07-23T14:29:35;9.20;;;5.70;;
15120;SDS011;7661;48.904;9.414;2022-07-23T14:32:02;9.40;;;5.30;;
15120;SDS011;7661;48.904;9.414;2022-07-23T14:34:29;8.17;;;5.70;;
15120;SDS011;7661;48.904;9.414;2022-07-23T14:36:57;8.03;;;5.20;;
15120;SDS011;7661;48.904;9.414;2022-07-23T14:39:26;8.80;;;5.47;;
15120;SDS011;7661;48.904;9.414;2022-07-23T14:41:53;5.60;;;5.00;;
15120;SDS011;7661;48.904;9.414;2022-07-23T14:44:20;10.63;;;4.73;;
15120;SDS011;7661;48.904;9.414;2022-07-23T14:46:47;6.00;;;4.73;;
15120;SDS011;7661;48.904;9.414;2022-07-23T14:49:14;6.07;;;4.73;;
15120;SDS011;7661;48.904;9.414;2022-07-23T14:51:41;6.57;;;4.93;;
15120;SDS011;7661;48.904;9.414;2022-07-23T14:54:08;8.73;;;5.13;;
15120;SDS011;7661;48.904;9.414;2022-07-23T14:56:36;8.23;;;4.20;;
15120;SDS011;7661;48.904;9.414;2022-07-23T14:59:03;7.20;;;5.23;;
15120;SDS011;7661;48.904;9.414;2022-07-23T15:01:30;8.20;;;4.70;;
15120;SDS011;7661;48.904;9.414;2022-07-23T15:03:58;8.97;;;5.00;;
15120;SDS011;7661;48.904;9.414;2022-07-23T15:06:25;6.43;;;4.93;;
15120;SDS011;7661;48.904;9.414;2022-07-23T15:08:52;10.40;;;5.00;;
15120;SDS011;7661;48.904;9.414;2022-07-23T15:11:19;8.53;;;5.10;;
15120;SDS011;7661;48.904;9.414;2022-07-23T15:13:47;6.23;;;4.57;;